createdAt,value
2022-08-22T00:02:51.815Z,11.1
2022-08-22T00:09:38.099Z,55.2
2022-08-22T00:14:40.569Z,16.2
2022-08-22T00:19:42.977Z,10.7
2022-08-22T00:24:46.301Z,9.8
2022-08-22T00:29:48.863Z,12.2
2022-08-22T00:34:54.162Z,10.9
2022-08-22T00:39:56.774Z,10.8
2022-08-22T00:45:05.214Z,12
2022-08-22T00:50:07.820Z,11.5
2022-08-22T00:55:10.452Z,11.6
2022-08-22T01:00:12.749Z,11.1
2022-08-22T01:05:15.045Z,9.8
2022-08-22T01:10:17.831Z,9.8
2022-08-22T01:15:20.759Z,9.3
2022-08-22T01:20:23.340Z,9.1
2022-08-22T01:25:26.323Z,10.6
2022-08-22T01:30:30.792Z,10.8
2022-08-22T01:35:33.419Z,11
2022-08-22T01:40:36.482Z,10.6
2022-08-22T01:45:37.319Z,11.1
2022-08-22T01:50:39.884Z,11.2
2022-08-22T01:55:42.407Z,11.1
2022-08-22T02:00:45.784Z,11.4
2022-08-22T02:05:48.937Z,11.9
2022-08-22T02:10:51.524Z,12.3
2022-08-22T02:15:56.845Z,12.5
2022-08-22T02:21:00.139Z,11.8
2022-08-22T02:26:02.628Z,11.3
2022-08-22T02:31:05.527Z,12.5
2022-08-22T02:36:08.705Z,13.7
2022-08-22T02:41:12.335Z,14.8
2022-08-22T02:46:14.997Z,14.4
2022-08-22T02:51:17.422Z,13.8
2022-08-22T02:56:19.754Z,13
2022-08-22T03:01:23.012Z,14
2022-08-22T03:06:26.819Z,15.9
2022-08-22T03:11:29.606Z,16.4
2022-08-22T03:16:32.220Z,16.5
2022-08-22T03:21:34.893Z,16.4
2022-08-22T03:26:37.447Z,15.3
2022-08-22T03:31:40.483Z,25.3
2022-08-22T03:36:42.856Z,18.3
2022-08-22T03:41:49.309Z,15.9
2022-08-22T03:46:51.807Z,16.8
2022-08-22T03:51:54.684Z,16.9
2022-08-22T03:57:00.633Z,17.6
2022-08-22T04:02:01.619Z,18.8
2022-08-22T04:07:05.456Z,18.8
2022-08-22T04:12:05.042Z,19.3
2022-08-22T04:17:07.882Z,19
2022-08-22T04:22:10.775Z,19.9
2022-08-22T04:27:13.730Z,19.2
2022-08-22T04:32:16.129Z,17.9
2022-08-22T04:37:19.022Z,17.4
2022-08-22T04:42:32.503Z,15.9
2022-08-22T04:47:25.509Z,15.4
2022-08-22T04:52:29.483Z,17
2022-08-22T04:57:32.652Z,16.3
2022-08-22T05:02:34.919Z,16.8
2022-08-22T05:07:37.594Z,15.6
2022-08-22T05:12:40.791Z,15.8
2022-08-22T05:17:43.744Z,17.7
2022-08-22T05:22:46.599Z,17.9
2022-08-22T05:27:49.433Z,18.6
2022-08-22T05:32:59.235Z,18.6
2022-08-22T05:38:01.660Z,16.8
2022-08-22T05:43:04.713Z,17.5
2022-08-22T05:48:07.365Z,16.9
2022-08-22T05:53:09.929Z,18
2022-08-22T05:58:12.185Z,19.4
2022-08-22T06:03:15.006Z,19.1
2022-08-22T06:08:17.748Z,17
2022-08-22T06:13:24.365Z,15.6
2022-08-22T06:18:21.619Z,16.3
2022-08-22T06:23:23.956Z,14.9
2022-08-22T06:28:26.533Z,14.9
2022-08-22T06:33:29.113Z,13.6
2022-08-22T06:38:31.962Z,12.4
2022-08-22T06:43:34.958Z,13.9
2022-08-22T06:48:37.480Z,11.6
2022-08-22T06:53:40.342Z,35.6
2022-08-22T06:58:41.035Z,21
2022-08-22T07:03:43.558Z,20.5
2022-08-22T07:08:46.240Z,23.8
2022-08-22T07:13:48.917Z,21.5
2022-08-22T07:18:51.773Z,19.4
2022-08-22T07:23:54.133Z,24.6
2022-08-22T07:28:58.087Z,25.9
2022-08-22T07:33:57.841Z,23
2022-08-22T07:39:00.215Z,30.4
2022-08-22T07:44:02.997Z,55.2
2022-08-22T07:49:09.323Z,17.2
2022-08-22T07:54:12.620Z,11.9
2022-08-22T07:59:15.120Z,11.8
2022-08-22T08:04:18.193Z,12.7
2022-08-22T08:09:20.875Z,13.3
2022-08-22T08:14:23.842Z,14.5
2022-08-22T08:19:26.194Z,13
2022-08-22T08:24:28.987Z,13.3
2022-08-22T08:29:36.494Z,13.2
2022-08-22T08:34:41.044Z,13.7
2022-08-22T08:39:44.272Z,13.3
2022-08-22T08:44:47.088Z,12.4
2022-08-22T08:49:50.528Z,13.5
2022-08-22T08:54:54.189Z,12.2
2022-08-22T08:59:56.714Z,12
2022-08-22T09:04:59.210Z,14.1
2022-08-22T09:10:02.216Z,12.5
2022-08-22T09:15:11.746Z,12.2
2022-08-22T09:20:19.386Z,11.4
2022-08-22T09:25:25.141Z,11.8
2022-08-22T09:46:41.543Z,10.1
2022-08-22T09:51:45.368Z,9.8
2022-08-22T09:56:53.614Z,9.9
2022-08-22T10:01:56.072Z,8.4
2022-08-22T10:07:01.300Z,12.2
2022-08-22T10:12:03.187Z,11.5
2022-08-22T10:17:03.333Z,11.1
2022-08-22T10:22:09.220Z,10.4
2022-08-22T10:27:14.796Z,19.3
2022-08-22T10:32:15.373Z,9.9
2022-08-22T10:37:16.154Z,8.3
2022-08-22T10:42:25.143Z,8.8
2022-08-22T10:47:31.500Z,8.1
2022-08-22T10:52:36.716Z,11
2022-08-22T10:57:40.137Z,8.8
2022-08-22T11:02:47.119Z,8.7
2022-08-22T11:07:48.498Z,10
2022-08-22T11:12:54.834Z,9.3
2022-08-22T11:18:00.309Z,10.1
2022-08-22T11:23:06.348Z,9
2022-08-22T11:28:12.988Z,9.5
2022-08-22T11:33:18.087Z,8.8
2022-08-22T11:38:30.587Z,11.5
2022-08-22T11:43:37.147Z,8.8
2022-08-22T11:48:40.095Z,7.7
2022-08-22T11:53:40.412Z,8.7
2022-08-22T11:58:43.187Z,7.3
2022-08-22T12:03:45.711Z,8.2
2022-08-22T12:08:53.080Z,8.2
2022-08-22T12:14:02.550Z,8.5
2022-08-22T12:18:59.801Z,6.9
2022-08-22T12:24:11.036Z,6.8
2022-08-22T12:29:15.021Z,5.9
2022-08-22T12:34:19.402Z,6.5
2022-08-22T12:39:27.491Z,6.9
2022-08-22T12:44:31.683Z,7.2
2022-08-22T12:49:34.751Z,4.9
2022-08-22T12:54:37.962Z,5.9
2022-08-22T12:59:42.038Z,6.4
2022-08-22T13:04:45.149Z,7.4
2022-08-22T13:09:50.210Z,7
2022-08-22T13:14:55.325Z,8.1
2022-08-22T13:19:58.393Z,7.8
2022-08-22T13:25:01.751Z,6.8
2022-08-22T13:30:12.467Z,8.2
2022-08-22T13:35:15.252Z,7.2
2022-08-22T13:40:16.220Z,6.4
2022-08-22T13:45:19.706Z,7
2022-08-22T13:50:23.846Z,6.5
2022-08-22T13:55:27.594Z,6.5
2022-08-22T14:00:32.293Z,6.8
2022-08-22T14:05:36.067Z,5.3
2022-08-22T14:10:38.630Z,5.6
2022-08-22T14:15:46.017Z,5.3
2022-08-22T14:20:52.903Z,4.7
2022-08-22T14:25:55.575Z,4.3
2022-08-22T14:31:01.961Z,3.2
2022-08-22T14:36:05.471Z,3.8
2022-08-22T14:41:10.911Z,3.5
2022-08-22T14:46:19.979Z,7.5
2022-08-22T14:51:28.805Z,3.7
2022-08-22T14:56:32.328Z,2.6
2022-08-22T15:01:37.274Z,3.4
2022-08-22T15:06:47.982Z,3.2
2022-08-22T15:11:42.115Z,4.1
2022-08-22T15:16:46.887Z,2.3
2022-08-22T15:21:49.793Z,2.4
2022-08-22T15:26:55.368Z,2.6
2022-08-22T15:31:59.553Z,3.3
2022-08-22T15:37:07.126Z,1.7
2022-08-22T15:42:09.087Z,2.1
2022-08-22T15:47:24.402Z,2
2022-08-22T15:52:17.064Z,2.5
2022-08-22T15:57:21.213Z,2.1
2022-08-22T16:02:24.049Z,2.7
2022-08-22T16:07:31.274Z,3.6
2022-08-22T16:12:34.542Z,2.4
2022-08-22T16:17:37.740Z,3.4
2022-08-22T16:22:42.621Z,2.8
2022-08-22T16:27:49.312Z,3.7
2022-08-22T16:32:51.819Z,3.9
2022-08-22T16:37:54.149Z,2.5
2022-08-22T16:42:56.572Z,2.4
2022-08-22T16:47:58.910Z,2.4
2022-08-22T16:53:01.494Z,2.3
2022-08-22T16:58:07.311Z,2.8
2022-08-22T17:03:11.102Z,3.2
2022-08-22T17:08:14.678Z,2.6
2022-08-22T17:13:17.307Z,3.6
2022-08-22T17:18:19.617Z,2.7
2022-08-22T17:23:22.172Z,3.2
2022-08-22T17:28:24.464Z,4.5
2022-08-22T17:33:33.644Z,5.3
2022-08-22T17:38:38.137Z,2.8
2022-08-22T17:43:48.403Z,3
2022-08-22T17:48:42.391Z,3.9
2022-08-22T17:53:44.632Z,3.5
2022-08-22T17:58:47.455Z,4.2
2022-08-22T18:03:49.873Z,4.7
2022-08-22T18:13:57.002Z,3.2
2022-08-22T18:19:05.584Z,4.3
2022-08-22T18:24:08.298Z,4.7
2022-08-22T18:29:10.812Z,4.8
2022-08-22T18:34:13.337Z,19.3
2022-08-22T18:39:18.365Z,29.1
2022-08-22T18:44:20.771Z,76.7
2022-08-22T18:49:23.108Z,39.2
2022-08-22T18:54:27.562Z,27.2
2022-08-22T18:59:30.047Z,34.3
2022-08-22T19:04:30.570Z,14.3
2022-08-22T19:09:32.819Z,15.3
2022-08-22T19:14:35.159Z,16.4
2022-08-22T19:19:37.551Z,18.5
2022-08-22T19:24:40.566Z,18.7
2022-08-22T19:29:43.023Z,17.5
2022-08-22T19:34:46.767Z,18
2022-08-22T19:39:50.461Z,12.9
2022-08-22T19:44:57.186Z,12.8
2022-08-22T19:50:00.196Z,9.7
2022-08-22T19:55:06.494Z,7.8
2022-08-22T20:00:08.816Z,9.2
2022-08-22T20:05:14.252Z,7.8
2022-08-22T20:10:16.560Z,8.3
2022-08-22T20:15:18.903Z,6.7
2022-08-22T20:20:24.143Z,6.8
2022-08-22T20:25:42.033Z,6.7
2022-08-22T20:30:36.514Z,6.5
2022-08-22T20:35:39.291Z,6.1
2022-08-22T20:40:55.739Z,6.9
2022-08-22T20:45:50.934Z,7
2022-08-22T20:50:54.246Z,7
2022-08-22T20:55:57.637Z,7.6
2022-08-22T21:01:00.327Z,11.1
2022-08-22T21:06:03.024Z,8
2022-08-22T21:11:09.019Z,8.5
2022-08-22T21:16:11.589Z,7.7
2022-08-22T21:21:17.167Z,8.6
2022-08-22T21:26:21.602Z,12.8
2022-08-22T21:31:22.530Z,8
2022-08-22T21:36:25.444Z,8.9
2022-08-22T21:41:27.786Z,8.6
2022-08-22T21:46:30.184Z,9.4
2022-08-22T21:51:34.594Z,9
2022-08-22T21:56:37.606Z,8.8
2022-08-22T22:01:40.641Z,8.2
2022-08-22T22:06:49.465Z,9.6
2022-08-22T22:11:51.823Z,9.9
2022-08-22T22:16:54.924Z,9.3
2022-08-22T22:21:57.775Z,8.5
2022-08-22T22:27:00.478Z,11.5
2022-08-22T22:32:02.805Z,12.3
2022-08-22T22:37:05.097Z,11.4
2022-08-22T22:42:07.354Z,14
2022-08-22T22:47:09.788Z,18.4
2022-08-22T22:52:12.201Z,16.7
2022-08-22T22:57:18.271Z,16.2
2022-08-22T23:02:21.201Z,17.3
2022-08-22T23:07:23.440Z,16.9
2022-08-22T23:12:27.658Z,16.3
2022-08-22T23:17:30.251Z,16.6
2022-08-22T23:22:32.665Z,17.1
2022-08-22T23:27:35.603Z,16
2022-08-22T23:32:38.039Z,16.1
2022-08-22T23:37:41.026Z,15
2022-08-22T23:42:43.567Z,15.3
2022-08-22T23:47:46.099Z,18.1
2022-08-22T23:52:49.292Z,16.7
2022-08-22T23:57:51.696Z,17.7
